Accueil
METAR-TAF:

METAR-TAF

Aéroports :

Aéroport de Huesca-Pyrénées

Huesca, Espagne

latitude: 42-04-32N, longitude: 0-18-58W, altitude: 539 m

Observation

Le bulletin a été fait il y a 18 minutes, à 16:00 UTC
Vent 19 kt de ouest/nord-ouest
Température 8°C
Humidité 49%
Pression 1015 hPa
Visibilité 10 km ou plus
Quelques nuages à une hauteur de 4500 ft

METAR: LEHC 211600Z 30019KT 9999 FEW045 08/M02 Q1015

Heure: 17:18 (16:18 UTC)

Prévision

Le bulletin a été fait il y a 7 heures et 19 minutes, à 08:59 UTC
Prévision valable du 21 à 09 UTC au 22 à 09 UTC
Vent 7 kt de nord-ouest
Visibilité 10 km ou plus
Quelques nuages à une hauteur de 2000 ft
Temporairement
du 21 à 09 UTC au 21 à 11 UTC
Visibilité: 1000 m
bancs de brouillard
Temporairement
du 21 à 11 UTC au 21 à 17 UTC
Vent 12 kt de ouest

TAF: LEHC 210859Z 2109/2209 31007KT 9999 FEW020 TX07/2113Z TNM02/2206Z TEMPO 2109/2111 1000 BCFG TEMPO 2111/2117 28012KT

Observations et prévisions météorologiques de plus de 4000 aéroports (messages METAR et TAF).

Les stations disponibles sont représentées par des disques jaunes et rouges sur la carte.

Passer la souris dessus pour voir le nom de la station.

Cliquer dessus pour voir les observations et prévisions météorologiques.

Pour changer de carte: cliquez sur les boutons verts avec une croix noire pour zoomer, sur le bouton vert avec un tiret pour effectuer un zoom arrière, ou sur les flèches vertes pour les cartes adjacentes.


METAR-TAF: